sensor_id;sensor_type;location;lat;lon;timestamp;pressure;altitude;pressure_sealevel;temperature;humidity
23733;BME280;12047;53.450;-2.286;2023-11-21T00:03:56;101468.41;;;16.43;100.00
23733;BME280;12047;53.450;-2.286;2023-11-21T00:08:56;101473.53;;;16.36;100.00
23733;BME280;12047;53.450;-2.286;2023-11-21T00:13:57;101483.38;;;16.27;100.00
23733;BME280;12047;53.450;-2.286;2023-11-21T00:18:57;101497.91;;;16.07;100.00
23733;BME280;12047;53.450;-2.286;2023-11-21T00:23:58;101502.13;;;16.36;100.00
23733;BME280;12047;53.450;-2.286;2023-11-21T00:28:58;101511.41;;;16.23;100.00
23733;BME280;12047;53.450;-2.286;2023-11-21T00:33:58;101516.56;;;16.43;100.00
23733;BME280;12047;53.450;-2.286;2023-11-21T00:38:59;101528.59;;;16.21;100.00
23733;BME280;12047;53.450;-2.286;2023-11-21T00:44:00;101542.31;;;15.55;100.00
23733;BME280;12047;53.450;-2.286;2023-11-21T00:49:01;101560.22;;;16.25;100.00
23733;BME280;12047;53.450;-2.286;2023-11-21T00:54:02;101575.25;;;15.46;100.00
23733;BME280;12047;53.450;-2.286;2023-11-21T00:59:02;101574.81;;;16.31;100.00
23733;BME280;12047;53.450;-2.286;2023-11-21T01:04:05;101579.16;;;16.50;100.00
23733;BME280;12047;53.450;-2.286;2023-11-21T01:09:07;101592.78;;;16.03;100.00
23733;BME280;12047;53.450;-2.286;2023-11-21T01:14:10;101603.63;;;16.19;100.00
23733;BME280;12047;53.450;-2.286;2023-11-21T01:19:11;101610.06;;;15.54;100.00
23733;BME280;12047;53.450;-2.286;2023-11-21T01:24:11;101615.19;;;15.75;100.00
23733;BME280;12047;53.450;-2.286;2023-11-21T01:29:12;101626.41;;;16.23;100.00
23733;BME280;12047;53.450;-2.286;2023-11-21T01:34:12;101606.94;;;15.86;100.00
23733;BME280;12047;53.450;-2.286;2023-11-21T01:39:14;101613.66;;;15.35;100.00
23733;BME280;12047;53.450;-2.286;2023-11-21T01:44:16;101625.72;;;16.21;100.00
23733;BME280;12047;53.450;-2.286;2023-11-21T01:49:17;101626.31;;;16.15;100.00
23733;BME280;12047;53.450;-2.286;2023-11-21T01:54:18;101636.09;;;16.78;100.00
23733;BME280;12047;53.450;-2.286;2023-11-21T01:59:21;101657.25;;;16.36;100.00
23733;BME280;12047;53.450;-2.286;2023-11-21T02:04:22;101661.63;;;16.72;100.00
23733;BME280;12047;53.450;-2.286;2023-11-21T02:09:26;101669.22;;;16.77;100.00
23733;BME280;12047;53.450;-2.286;2023-11-21T02:14:27;101654.44;;;16.73;100.00
23733;BME280;12047;53.450;-2.286;2023-11-21T02:19:28;101666.25;;;17.06;100.00
23733;BME280;12047;53.450;-2.286;2023-11-21T02:24:29;101661.22;;;16.14;100.00
23733;BME280;12047;53.450;-2.286;2023-11-21T02:29:30;101662.16;;;16.58;100.00
23733;BME280;12047;53.450;-2.286;2023-11-21T02:34:30;101666.91;;;16.46;100.00
23733;BME280;12047;53.450;-2.286;2023-11-21T02:39:31;101669.66;;;16.54;100.00
23733;BME280;12047;53.450;-2.286;2023-11-21T02:44:32;101671.47;;;16.18;100.00
23733;BME280;12047;53.450;-2.286;2023-11-21T02:49:32;101687.66;;;16.34;100.00
23733;BME280;12047;53.450;-2.286;2023-11-21T02:54:34;101691.66;;;16.30;100.00
23733;BME280;12047;53.450;-2.286;2023-11-21T02:59:36;101712.22;;;16.48;100.00
23733;BME280;12047;53.450;-2.286;2023-11-21T03:04:37;101708.72;;;16.02;100.00
23733;BME280;12047;53.450;-2.286;2023-11-21T03:09:37;101712.00;;;15.96;100.00
23733;BME280;12047;53.450;-2.286;2023-11-21T03:14:39;101717.19;;;15.60;100.00
23733;BME280;12047;53.450;-2.286;2023-11-21T03:19:41;101712.13;;;15.94;100.00
23733;BME280;12047;53.450;-2.286;2023-11-21T03:24:41;101725.75;;;16.28;100.00
23733;BME280;12047;53.450;-2.286;2023-11-21T03:29:42;101744.03;;;16.33;100.00
23733;BME280;12047;53.450;-2.286;2023-11-21T03:34:56;101758.78;;;15.73;100.00
23733;BME280;12047;53.450;-2.286;2023-11-21T03:39:57;101760.81;;;15.98;100.00
23733;BME280;12047;53.450;-2.286;2023-11-21T03:44:58;101765.03;;;15.91;100.00
23733;BME280;12047;53.450;-2.286;2023-11-21T03:49:58;101771.28;;;15.82;100.00
23733;BME280;12047;53.450;-2.286;2023-11-21T03:54:59;101766.19;;;16.16;100.00
23733;BME280;12047;53.450;-2.286;2023-11-21T04:00:00;101775.94;;;15.80;100.00
23733;BME280;12047;53.450;-2.286;2023-11-21T04:05:00;101783.56;;;15.46;100.00
23733;BME280;12047;53.450;-2.286;2023-11-21T04:10:01;101785.97;;;15.39;100.00
23733;BME280;12047;53.450;-2.286;2023-11-21T04:15:03;101803.44;;;15.24;100.00
23733;BME280;12047;53.450;-2.286;2023-11-21T04:20:05;101814.91;;;15.82;100.00
23733;BME280;12047;53.450;-2.286;2023-11-21T04:25:13;101828.97;;;15.75;100.00
23733;BME280;12047;53.450;-2.286;2023-11-21T04:30:14;101840.63;;;16.20;100.00
23733;BME280;12047;53.450;-2.286;2023-11-21T04:35:15;101854.16;;;16.19;100.00
23733;BME280;12047;53.450;-2.286;2023-11-21T04:40:15;101856.47;;;15.94;100.00
23733;BME280;12047;53.450;-2.286;2023-11-21T04:45:16;101854.44;;;16.53;100.00
23733;BME280;12047;53.450;-2.286;2023-11-21T04:50:16;101861.25;;;16.92;100.00
23733;BME280;12047;53.450;-2.286;2023-11-21T04:55:17;101879.56;;;16.70;100.00
23733;BME280;12047;53.450;-2.286;2023-11-21T05:00:17;101891.56;;;15.82;100.00
23733;BME280;12047;53.450;-2.286;2023-11-21T05:05:18;101899.47;;;16.20;100.00
23733;BME280;12047;53.450;-2.286;2023-11-21T05:10:19;101899.28;;;15.46;100.00
23733;BME280;12047;53.450;-2.286;2023-11-21T05:15:20;101908.00;;;15.68;100.00
23733;BME280;12047;53.450;-2.286;2023-11-21T05:20:21;101914.81;;;16.09;100.00
23733;BME280;12047;53.450;-2.286;2023-11-21T05:25:21;101907.00;;;15.49;100.00
23733;BME280;12047;53.450;-2.286;2023-11-21T05:30:22;101926.00;;;15.65;100.00
23733;BME280;12047;53.450;-2.286;2023-11-21T05:35:22;101933.88;;;15.86;100.00
23733;BME280;12047;53.450;-2.286;2023-11-21T05:40:23;101944.78;;;16.22;100.00
23733;BME280;12047;53.450;-2.286;2023-11-21T05:45:23;101950.88;;;15.85;100.00
23733;BME280;12047;53.450;-2.286;2023-11-21T05:50:24;101968.47;;;16.07;100.00
23733;BME280;12047;53.450;-2.286;2023-11-21T05:55:24;101981.09;;;16.24;100.00
23733;BME280;12047;53.450;-2.286;2023-11-21T06:00:26;101981.09;;;16.15;100.00
23733;BME280;12047;53.450;-2.286;2023-11-21T06:05:28;101989.59;;;16.01;100.00
23733;BME280;12047;53.450;-2.286;2023-11-21T06:10:28;101999.69;;;16.16;100.00
23733;BME280;12047;53.450;-2.286;2023-11-21T06:15:29;102005.44;;;16.12;100.00
23733;BME280;12047;53.450;-2.286;2023-11-21T06:20:29;102022.09;;;16.06;100.00
23733;BME280;12047;53.450;-2.286;2023-11-21T06:25:30;102021.78;;;15.60;100.00
23733;BME280;12047;53.450;-2.286;2023-11-21T06:30:33;102034.66;;;14.96;100.00
23733;BME280;12047;53.450;-2.286;2023-11-21T06:35:33;102050.34;;;16.18;100.00
23733;BME280;12047;53.450;-2.286;2023-11-21T06:40:35;102047.66;;;16.47;100.00
23733;BME280;12047;53.450;-2.286;2023-11-21T06:45:35;102047.00;;;16.06;100.00
23733;BME280;12047;53.450;-2.286;2023-11-21T06:50:36;102055.53;;;15.61;100.00
23733;BME280;12047;53.450;-2.286;2023-11-21T06:55:39;102054.22;;;15.46;100.00
23733;BME280;12047;53.450;-2.286;2023-11-21T07:00:40;102066.00;;;15.44;100.00
23733;BME280;12047;53.450;-2.286;2023-11-21T07:05:41;102081.06;;;15.05;100.00
23733;BME280;12047;53.450;-2.286;2023-11-21T07:10:41;102090.44;;;15.39;100.00
23733;BME280;12047;53.450;-2.286;2023-11-21T07:15:42;102091.03;;;15.33;100.00
23733;BME280;12047;53.450;-2.286;2023-11-21T07:20:43;102078.78;;;15.40;100.00
23733;BME280;12047;53.450;-2.286;2023-11-21T07:25:44;102096.03;;;15.26;100.00
23733;BME280;12047;53.450;-2.286;2023-11-21T07:30:44;102107.06;;;15.92;100.00
23733;BME280;12047;53.450;-2.286;2023-11-21T07:35:45;102138.97;;;15.75;100.00
23733;BME280;12047;53.450;-2.286;2023-11-21T07:40:45;102140.66;;;15.45;100.00
23733;BME280;12047;53.450;-2.286;2023-11-21T07:45:46;102154.81;;;16.07;100.00
23733;BME280;12047;53.450;-2.286;2023-11-21T07:50:47;102170.41;;;15.01;100.00
23733;BME280;12047;53.450;-2.286;2023-11-21T07:55:48;102173.88;;;15.22;100.00
23733;BME280;12047;53.450;-2.286;2023-11-21T08:00:49;102188.81;;;15.95;100.00
23733;BME280;12047;53.450;-2.286;2023-11-21T08:05:49;102213.06;;;17.19;100.00
23733;BME280;12047;53.450;-2.286;2023-11-21T08:10:50;102228.34;;;15.61;100.00
23733;BME280;12047;53.450;-2.286;2023-11-21T08:15:58;102231.53;;;16.25;100.00
23733;BME280;12047;53.450;-2.286;2023-11-21T08:21:05;102261.31;;;15.71;100.00
23733;BME280;12047;53.450;-2.286;2023-11-21T08:26:05;102270.84;;;15.43;100.00
23733;BME280;12047;53.450;-2.286;2023-11-21T08:31:06;102282.97;;;15.47;100.00
23733;BME280;12047;53.450;-2.286;2023-11-21T08:36:08;102287.59;;;14.72;100.00
23733;BME280;12047;53.450;-2.286;2023-11-21T08:41:09;102286.69;;;15.14;100.00
23733;BME280;12047;53.450;-2.286;2023-11-21T08:46:09;102296.31;;;15.06;100.00
23733;BME280;12047;53.450;-2.286;2023-11-21T08:51:10;102300.56;;;15.71;100.00
23733;BME280;12047;53.450;-2.286;2023-11-21T08:56:14;102314.03;;;15.90;100.00
23733;BME280;12047;53.450;-2.286;2023-11-21T09:01:15;102323.44;;;15.43;100.00
23733;BME280;12047;53.450;-2.286;2023-11-21T09:06:15;102323.56;;;15.41;100.00
23733;BME280;12047;53.450;-2.286;2023-11-21T09:11:16;102321.25;;;15.16;100.00
23733;BME280;12047;53.450;-2.286;2023-11-21T09:16:17;102322.59;;;14.89;100.00
23733;BME280;12047;53.450;-2.286;2023-11-21T09:21:18;102333.69;;;15.06;100.00
23733;BME280;12047;53.450;-2.286;2023-11-21T09:26:18;102342.22;;;15.00;100.00
23733;BME280;12047;53.450;-2.286;2023-11-21T09:31:18;102337.69;;;14.79;100.00
23733;BME280;12047;53.450;-2.286;2023-11-21T09:36:22;102354.28;;;15.15;100.00
23733;BME280;12047;53.450;-2.286;2023-11-21T09:41:57;102358.88;;;15.24;100.00
23733;BME280;12047;53.450;-2.286;2023-11-21T09:46:59;102370.28;;;15.47;100.00
23733;BME280;12047;53.450;-2.286;2023-11-21T09:52:01;102384.19;;;15.61;100.00
23733;BME280;12047;53.450;-2.286;2023-11-21T09:57:03;102382.09;;;16.07;100.00
23733;BME280;12047;53.450;-2.286;2023-11-21T10:02:07;102391.88;;;15.23;100.00
23733;BME280;12047;53.450;-2.286;2023-11-21T10:07:13;102396.75;;;15.91;100.00
23733;BME280;12047;53.450;-2.286;2023-11-21T10:12:16;102409.47;;;15.25;100.00
23733;BME280;12047;53.450;-2.286;2023-11-21T10:17:17;102409.84;;;15.53;100.00
23733;BME280;12047;53.450;-2.286;2023-11-21T10:22:19;102414.81;;;15.25;100.00
23733;BME280;12047;53.450;-2.286;2023-11-21T10:27:20;102417.31;;;15.06;100.00
23733;BME280;12047;53.450;-2.286;2023-11-21T10:32:21;102397.19;;;14.91;100.00
23733;BME280;12047;53.450;-2.286;2023-11-21T10:37:21;102397.56;;;15.29;100.00
23733;BME280;12047;53.450;-2.286;2023-11-21T10:42:22;102428.63;;;14.98;100.00
23733;BME280;12047;53.450;-2.286;2023-11-21T10:47:25;102427.38;;;15.35;100.00
23733;BME280;12047;53.450;-2.286;2023-11-21T10:52:27;102440.81;;;15.23;100.00
23733;BME280;12047;53.450;-2.286;2023-11-21T10:57:28;102449.00;;;14.88;100.00
23733;BME280;12047;53.450;-2.286;2023-11-21T11:02:28;102445.59;;;15.09;100.00
23733;BME280;12047;53.450;-2.286;2023-11-21T11:07:33;102448.16;;;14.88;100.00
23733;BME280;12047;53.450;-2.286;2023-11-21T11:12:35;102462.13;;;14.69;100.00
23733;BME280;12047;53.450;-2.286;2023-11-21T11:17:37;102453.38;;;14.89;100.00
23733;BME280;12047;53.450;-2.286;2023-11-21T11:23:08;102442.59;;;15.87;100.00
23733;BME280;12047;53.450;-2.286;2023-11-21T11:28:15;102449.84;;;15.43;100.00
23733;BME280;12047;53.450;-2.286;2023-11-21T11:38:34;102452.72;;;15.51;100.00
23733;BME280;12047;53.450;-2.286;2023-11-21T11:43:35;102449.69;;;16.18;100.00
23733;BME280;12047;53.450;-2.286;2023-11-21T11:48:45;102454.47;;;15.94;100.00
23733;BME280;12047;53.450;-2.286;2023-11-21T11:53:46;102453.84;;;15.81;100.00
23733;BME280;12047;53.450;-2.286;2023-11-21T11:58:48;102470.91;;;15.25;100.00
23733;BME280;12047;53.450;-2.286;2023-11-21T12:09:21;102491.31;;;16.32;100.00
23733;BME280;12047;53.450;-2.286;2023-11-21T12:14:22;102485.91;;;16.22;100.00
23733;BME280;12047;53.450;-2.286;2023-11-21T12:19:23;102484.00;;;15.72;100.00
23733;BME280;12047;53.450;-2.286;2023-11-21T12:24:24;102488.03;;;15.66;100.00
23733;BME280;12047;53.450;-2.286;2023-11-21T12:29:24;102502.47;;;15.63;100.00
23733;BME280;12047;53.450;-2.286;2023-11-21T12:34:25;102497.63;;;15.69;100.00
23733;BME280;12047;53.450;-2.286;2023-11-21T12:39:25;102502.78;;;15.38;100.00
23733;BME280;12047;53.450;-2.286;2023-11-21T12:44:25;102520.53;;;15.82;100.00
23733;BME280;12047;53.450;-2.286;2023-11-21T12:49:26;102505.06;;;15.86;100.00
23733;BME280;12047;53.450;-2.286;2023-11-21T12:54:28;102519.22;;;15.97;100.00
23733;BME280;12047;53.450;-2.286;2023-11-21T12:59:28;102511.69;;;16.03;100.00
23733;BME280;12047;53.450;-2.286;2023-11-21T13:04:33;102510.53;;;15.41;100.00
23733;BME280;12047;53.450;-2.286;2023-11-21T13:09:35;102535.31;;;15.86;100.00
23733;BME280;12047;53.450;-2.286;2023-11-21T13:14:35;102537.31;;;15.30;100.00
23733;BME280;12047;53.450;-2.286;2023-11-21T13:19:36;102542.28;;;15.78;100.00
23733;BME280;12047;53.450;-2.286;2023-11-21T13:24:36;102559.44;;;16.07;100.00
23733;BME280;12047;53.450;-2.286;2023-11-21T13:29:37;102572.31;;;15.81;100.00
23733;BME280;12047;53.450;-2.286;2023-11-21T13:34:37;102559.56;;;15.74;100.00
23733;BME280;12047;53.450;-2.286;2023-11-21T13:39:38;102534.81;;;15.49;100.00
23733;BME280;12047;53.450;-2.286;2023-11-21T13:44:44;102553.63;;;16.02;100.00
23733;BME280;12047;53.450;-2.286;2023-11-21T13:49:48;102551.25;;;16.09;100.00
23733;BME280;12047;53.450;-2.286;2023-11-21T13:54:49;102552.66;;;15.60;100.00
23733;BME280;12047;53.450;-2.286;2023-11-21T13:59:50;102550.69;;;16.26;100.00
23733;BME280;12047;53.450;-2.286;2023-11-21T14:04:51;102546.50;;;15.37;100.00
23733;BME280;12047;53.450;-2.286;2023-11-21T14:09:56;102549.16;;;15.48;100.00
23733;BME280;12047;53.450;-2.286;2023-11-21T14:14:56;102557.63;;;15.64;100.00
23733;BME280;12047;53.450;-2.286;2023-11-21T14:19:57;102545.66;;;15.59;100.00
23733;BME280;12047;53.450;-2.286;2023-11-21T14:24:57;102531.91;;;15.41;100.00
23733;BME280;12047;53.450;-2.286;2023-11-21T14:30:00;102543.94;;;15.90;100.00
23733;BME280;12047;53.450;-2.286;2023-11-21T14:35:00;102547.22;;;15.50;100.00
23733;BME280;12047;53.450;-2.286;2023-11-21T14:40:01;102549.56;;;15.32;100.00
23733;BME280;12047;53.450;-2.286;2023-11-21T14:45:01;102570.53;;;15.48;100.00
23733;BME280;12047;53.450;-2.286;2023-11-21T14:50:08;102580.78;;;15.32;100.00
23733;BME280;12047;53.450;-2.286;2023-11-21T14:55:28;102578.28;;;15.62;100.00
23733;BME280;12047;53.450;-2.286;2023-11-21T15:00:32;102601.41;;;15.84;100.00
23733;BME280;12047;53.450;-2.286;2023-11-21T15:05:35;102591.88;;;15.59;100.00
23733;BME280;12047;53.450;-2.286;2023-11-21T15:10:35;102596.53;;;15.57;100.00
23733;BME280;12047;53.450;-2.286;2023-11-21T15:15:46;102601.28;;;15.86;100.00
23733;BME280;12047;53.450;-2.286;2023-11-21T15:20:48;102606.38;;;16.00;100.00
23733;BME280;12047;53.450;-2.286;2023-11-21T15:25:48;102614.50;;;16.30;100.00
23733;BME280;12047;53.450;-2.286;2023-11-21T15:30:49;102615.44;;;16.09;100.00
23733;BME280;12047;53.450;-2.286;2023-11-21T15:35:51;102623.50;;;15.32;100.00
23733;BME280;12047;53.450;-2.286;2023-11-21T15:40:51;102625.16;;;15.67;100.00
23733;BME280;12047;53.450;-2.286;2023-11-21T15:45:52;102632.81;;;15.60;100.00
23733;BME280;12047;53.450;-2.286;2023-11-21T15:50:53;102646.19;;;15.71;100.00
23733;BME280;12047;53.450;-2.286;2023-11-21T15:55:57;102641.31;;;15.65;100.00
23733;BME280;12047;53.450;-2.286;2023-11-21T16:00:58;102638.06;;;15.28;100.00
23733;BME280;12047;53.450;-2.286;2023-11-21T16:05:59;102655.34;;;15.57;100.00
23733;BME280;12047;53.450;-2.286;2023-11-21T16:10:59;102666.25;;;15.32;100.00
23733;BME280;12047;53.450;-2.286;2023-11-21T16:16:01;102682.38;;;15.64;100.00
23733;BME280;12047;53.450;-2.286;2023-11-21T16:21:01;102694.75;;;15.87;100.00
23733;BME280;12047;53.450;-2.286;2023-11-21T16:26:02;102697.78;;;15.16;100.00
23733;BME280;12047;53.450;-2.286;2023-11-21T16:31:05;102688.22;;;15.69;100.00
23733;BME280;12047;53.450;-2.286;2023-11-21T16:36:05;102683.66;;;16.03;100.00
23733;BME280;12047;53.450;-2.286;2023-11-21T16:41:06;102675.78;;;16.02;100.00
23733;BME280;12047;53.450;-2.286;2023-11-21T16:46:11;102680.03;;;15.93;100.00
23733;BME280;12047;53.450;-2.286;2023-11-21T16:51:17;102685.78;;;15.66;100.00
23733;BME280;12047;53.450;-2.286;2023-11-21T16:56:17;102689.94;;;15.59;100.00
23733;BME280;12047;53.450;-2.286;2023-11-21T17:01:18;102684.06;;;17.34;100.00
23733;BME280;12047;53.450;-2.286;2023-11-21T17:06:19;102687.31;;;16.02;100.00
23733;BME280;12047;53.450;-2.286;2023-11-21T17:11:20;102693.91;;;15.87;100.00
23733;BME280;12047;53.450;-2.286;2023-11-21T17:16:20;102694.13;;;15.84;100.00
23733;BME280;12047;53.450;-2.286;2023-11-21T17:21:21;102708.25;;;15.41;100.00
23733;BME280;12047;53.450;-2.286;2023-11-21T17:26:22;102711.38;;;15.13;100.00
23733;BME280;12047;53.450;-2.286;2023-11-21T17:31:22;102707.78;;;15.70;100.00
23733;BME280;12047;53.450;-2.286;2023-11-21T17:36:23;102706.41;;;15.08;100.00
23733;BME280;12047;53.450;-2.286;2023-11-21T17:41:24;102708.72;;;15.46;100.00
23733;BME280;12047;53.450;-2.286;2023-11-21T17:46:25;102706.66;;;15.50;100.00
23733;BME280;12047;53.450;-2.286;2023-11-21T17:51:25;102704.59;;;15.42;100.00
23733;BME280;12047;53.450;-2.286;2023-11-21T17:56:26;102711.97;;;15.16;100.00
23733;BME280;12047;53.450;-2.286;2023-11-21T18:01:26;102714.78;;;15.15;100.00
23733;BME280;12047;53.450;-2.286;2023-11-21T18:06:33;102710.56;;;15.46;100.00
23733;BME280;12047;53.450;-2.286;2023-11-21T18:11:34;102721.63;;;15.52;100.00
23733;BME280;12047;53.450;-2.286;2023-11-21T18:16:35;102735.94;;;15.51;100.00
23733;BME280;12047;53.450;-2.286;2023-11-21T18:21:38;102743.50;;;15.69;100.00
23733;BME280;12047;53.450;-2.286;2023-11-21T18:26:40;102746.06;;;15.70;100.00
23733;BME280;12047;53.450;-2.286;2023-11-21T18:31:40;102739.78;;;15.36;100.00
23733;BME280;12047;53.450;-2.286;2023-11-21T18:36:43;102735.19;;;15.38;100.00
23733;BME280;12047;53.450;-2.286;2023-11-21T18:41:45;102732.41;;;15.28;100.00
23733;BME280;12047;53.450;-2.286;2023-11-21T18:46:45;102735.91;;;15.07;100.00
23733;BME280;12047;53.450;-2.286;2023-11-21T18:51:46;102751.75;;;14.97;100.00
23733;BME280;12047;53.450;-2.286;2023-11-21T18:56:48;102744.88;;;14.71;100.00
23733;BME280;12047;53.450;-2.286;2023-11-21T19:01:48;102748.81;;;14.89;100.00
23733;BME280;12047;53.450;-2.286;2023-11-21T19:06:50;102778.66;;;14.83;100.00
23733;BME280;12047;53.450;-2.286;2023-11-21T19:11:53;102765.91;;;14.86;100.00
23733;BME280;12047;53.450;-2.286;2023-11-21T19:16:54;102771.06;;;15.01;100.00
23733;BME280;12047;53.450;-2.286;2023-11-21T19:21:54;102773.28;;;15.07;100.00
23733;BME280;12047;53.450;-2.286;2023-11-21T19:26:55;102781.13;;;14.97;100.00
23733;BME280;12047;53.450;-2.286;2023-11-21T19:31:55;102784.84;;;14.83;100.00
23733;BME280;12047;53.450;-2.286;2023-11-21T19:36:56;102799.16;;;14.82;100.00
23733;BME280;12047;53.450;-2.286;2023-11-21T19:41:58;102789.72;;;14.66;100.00
23733;BME280;12047;53.450;-2.286;2023-11-21T19:46:58;102776.78;;;14.48;100.00
23733;BME280;12047;53.450;-2.286;2023-11-21T19:51:59;102772.91;;;14.28;100.00
23733;BME280;12047;53.450;-2.286;2023-11-21T19:57:00;102784.78;;;14.72;100.00
23733;BME280;12047;53.450;-2.286;2023-11-21T20:02:05;102795.09;;;14.16;100.00
23733;BME280;12047;53.450;-2.286;2023-11-21T20:07:05;102790.44;;;14.56;100.00
23733;BME280;12047;53.450;-2.286;2023-11-21T20:12:06;102800.28;;;14.43;100.00
23733;BME280;12047;53.450;-2.286;2023-11-21T20:17:07;102789.28;;;14.48;100.00
23733;BME280;12047;53.450;-2.286;2023-11-21T20:22:07;102775.78;;;14.25;100.00
23733;BME280;12047;53.450;-2.286;2023-11-21T20:27:08;102779.03;;;14.66;100.00
23733;BME280;12047;53.450;-2.286;2023-11-21T20:32:09;102779.53;;;14.59;100.00
23733;BME280;12047;53.450;-2.286;2023-11-21T20:37:10;102792.84;;;14.23;100.00
23733;BME280;12047;53.450;-2.286;2023-11-21T20:42:11;102796.31;;;14.49;100.00
23733;BME280;12047;53.450;-2.286;2023-11-21T20:47:12;102802.13;;;14.30;100.00
23733;BME280;12047;53.450;-2.286;2023-11-21T20:52:12;102794.38;;;14.51;100.00
23733;BME280;12047;53.450;-2.286;2023-11-21T20:57:13;102800.16;;;14.69;100.00
23733;BME280;12047;53.450;-2.286;2023-11-21T21:02:16;102795.63;;;14.82;100.00
23733;BME280;12047;53.450;-2.286;2023-11-21T21:07:17;102794.69;;;14.59;100.00
23733;BME280;12047;53.450;-2.286;2023-11-21T21:12:17;102807.03;;;14.60;100.00
23733;BME280;12047;53.450;-2.286;2023-11-21T21:17:18;102810.66;;;14.35;100.00
23733;BME280;12047;53.450;-2.286;2023-11-21T21:22:21;102806.44;;;14.07;100.00
23733;BME280;12047;53.450;-2.286;2023-11-21T21:27:23;102810.34;;;14.14;100.00
23733;BME280;12047;53.450;-2.286;2023-11-21T21:32:24;102812.16;;;14.26;100.00
23733;BME280;12047;53.450;-2.286;2023-11-21T21:37:25;102801.28;;;14.29;100.00
23733;BME280;12047;53.450;-2.286;2023-11-21T21:42:26;102810.66;;;13.35;100.00
23733;BME280;12047;53.450;-2.286;2023-11-21T21:47:26;102809.91;;;13.84;100.00
23733;BME280;12047;53.450;-2.286;2023-11-21T21:52:34;102804.84;;;14.78;100.00
23733;BME280;12047;53.450;-2.286;2023-11-21T21:57:36;102792.47;;;14.04;100.00
23733;BME280;12047;53.450;-2.286;2023-11-21T22:02:36;102788.38;;;14.11;100.00
23733;BME280;12047;53.450;-2.286;2023-11-21T22:07:39;102782.81;;;14.26;100.00
23733;BME280;12047;53.450;-2.286;2023-11-21T22:12:40;102774.50;;;14.18;100.00
23733;BME280;12047;53.450;-2.286;2023-11-21T22:17:43;102774.72;;;14.15;100.00
23733;BME280;12047;53.450;-2.286;2023-11-21T22:22:44;102769.03;;;14.09;100.00
23733;BME280;12047;53.450;-2.286;2023-11-21T22:27:44;102782.63;;;14.77;100.00
23733;BME280;12047;53.450;-2.286;2023-11-21T22:32:45;102780.03;;;14.28;100.00
23733;BME280;12047;53.450;-2.286;2023-11-21T22:37:45;102782.03;;;14.01;100.00
23733;BME280;12047;53.450;-2.286;2023-11-21T22:42:46;102767.31;;;13.95;100.00
23733;BME280;12047;53.450;-2.286;2023-11-21T22:47:46;102783.00;;;14.00;100.00
23733;BME280;12047;53.450;-2.286;2023-11-21T22:52:47;102805.22;;;13.75;100.00
23733;BME280;12047;53.450;-2.286;2023-11-21T22:57:52;102801.47;;;13.65;100.00
23733;BME280;12047;53.450;-2.286;2023-11-21T23:02:52;102799.44;;;13.43;100.00
23733;BME280;12047;53.450;-2.286;2023-11-21T23:07:53;102811.50;;;13.74;100.00
23733;BME280;12047;53.450;-2.286;2023-11-21T23:12:54;102815.22;;;13.71;100.00
23733;BME280;12047;53.450;-2.286;2023-11-21T23:17:56;102802.63;;;13.86;100.00
23733;BME280;12047;53.450;-2.286;2023-11-21T23:22:57;102819.03;;;13.92;100.00
23733;BME280;12047;53.450;-2.286;2023-11-21T23:27:57;102798.03;;;13.88;100.00
23733;BME280;12047;53.450;-2.286;2023-11-21T23:32:59;102806.06;;;13.75;100.00
23733;BME280;12047;53.450;-2.286;2023-11-21T23:37:59;102790.72;;;13.79;100.00
23733;BME280;12047;53.450;-2.286;2023-11-21T23:43:00;102788.22;;;13.88;100.00
23733;BME280;12047;53.450;-2.286;2023-11-21T23:48:00;102777.19;;;13.44;100.00
23733;BME280;12047;53.450;-2.286;2023-11-21T23:53:03;102763.03;;;13.31;100.00
23733;BME280;12047;53.450;-2.286;2023-11-21T23:58:03;102778.69;;;13.60;100.00
